createdAt,value
2023-02-23T00:01:54.803Z,97248.63
2023-02-23T00:04:23.678Z,97211.56
2023-02-23T00:06:52.429Z,97227.88
2023-02-23T00:09:24.641Z,97266.50
2023-02-23T00:11:56.078Z,97269.13
2023-02-23T00:14:28.169Z,97259.69
2023-02-23T00:16:56.887Z,97283.81
2023-02-23T00:19:25.866Z,97266.72
2023-02-23T00:21:54.659Z,97266.69
2023-02-23T00:24:23.419Z,97264.06
2023-02-23T00:26:51.805Z,97260.66
2023-02-23T00:29:23.835Z,97267.59
2023-02-23T00:31:53.297Z,97270.19
2023-02-23T00:34:23.847Z,97265.97
2023-02-23T00:36:54.514Z,97263.44
2023-02-23T00:39:26.911Z,97266.19
2023-02-23T00:41:55.957Z,97267.25
2023-02-23T00:44:26.274Z,97262.72
2023-02-23T00:46:54.492Z,97127.06
2023-02-23T00:49:23.710Z,97140.63
2023-02-23T00:51:53.121Z,97262.63
2023-02-23T00:54:22.970Z,97187.88
2023-02-23T00:56:51.927Z,97272.22
2023-02-23T00:59:20.730Z,97275.91
2023-02-23T01:01:50.698Z,97250.78
2023-02-23T01:04:18.893Z,97271.28
2023-02-23T01:06:47.405Z,97274.22
2023-02-23T01:09:27.278Z,97282.19
2023-02-23T01:12:01.700Z,97276.16
2023-02-23T01:14:31.378Z,97205.69
2023-02-23T01:17:01.620Z,97276.94
2023-02-23T01:19:29.924Z,97251.13
2023-02-23T01:21:58.090Z,97259.03
2023-02-23T01:24:26.263Z,97285.84
2023-02-23T01:26:54.699Z,97221.66
2023-02-23T01:29:22.855Z,97250.50
2023-02-23T01:31:51.999Z,97284.06
2023-02-23T01:34:22.846Z,97262.56
2023-02-23T01:36:51.137Z,97273.84
2023-02-23T01:39:21.628Z,97260.97
2023-02-23T01:41:51.934Z,97351.66
2023-02-23T01:44:57.340Z,97270.19
2023-02-23T01:47:26.889Z,97255.53
2023-02-23T01:49:56.511Z,97243.69
2023-02-23T01:52:24.833Z,97249.88
2023-02-23T01:54:57.118Z,97250.91
2023-02-23T01:57:27.149Z,97263.72
2023-02-23T01:59:56.375Z,97266.19
2023-02-23T02:02:34.034Z,97264.41
2023-02-23T02:05:06.597Z,97169.06
2023-02-23T02:07:36.407Z,97263.59
2023-02-23T02:10:33.679Z,97260.09
2023-02-23T02:13:05.936Z,97263.50
2023-02-23T02:15:38.970Z,97255.78
2023-02-23T02:18:18.853Z,97151.19
2023-02-23T02:21:31.776Z,97237.13
2023-02-23T02:24:40.499Z,97257.56
2023-02-23T02:27:22.311Z,97253.25
2023-02-23T02:30:28.762Z,97250.78
2023-02-23T02:33:34.641Z,97253.41
2023-02-23T02:36:32.211Z,97243.19
2023-02-23T02:39:10.780Z,97262.25
2023-02-23T02:41:53.445Z,97257.13
2023-02-23T02:44:36.349Z,97256.13
2023-02-23T02:47:09.463Z,97258.72
2023-02-23T02:49:46.284Z,97265.66
2023-02-23T02:52:20.587Z,97276.00
2023-02-23T02:54:54.531Z,97256.06
2023-02-23T02:57:26.723Z,97245.59
2023-02-23T03:00:12.615Z,97255.16
2023-02-23T03:02:59.565Z,97255.31
2023-02-23T03:05:49.721Z,97257.81
2023-02-23T03:08:41.419Z,97251.16
2023-02-23T03:11:30.432Z,97264.31
2023-02-23T03:14:28.666Z,97255.69
2023-02-23T03:17:22.368Z,97254.78
2023-02-23T03:20:17.180Z,97252.19
2023-02-23T03:23:12.156Z,97263.28
2023-02-23T03:26:07.738Z,97263.41
2023-02-23T03:29:03.047Z,97253.88
2023-02-23T03:31:58.884Z,97230.69
2023-02-23T03:34:50.637Z,97267.81
2023-02-23T03:37:41.212Z,97268.56
2023-02-23T03:40:35.413Z,97256.50
2023-02-23T03:43:24.568Z,97270.25
2023-02-23T03:46:14.889Z,97256.63
2023-02-23T03:49:04.551Z,97275.75
2023-02-23T03:51:53.432Z,97243.97
2023-02-23T03:54:46.367Z,97261.91
2023-02-23T03:57:35.255Z,97291.22
2023-02-23T04:00:26.130Z,97261.19
2023-02-23T04:03:15.578Z,97283.50
2023-02-23T04:06:03.717Z,97285.97
2023-02-23T04:08:54.311Z,97283.50
2023-02-23T04:11:47.410Z,97288.72
2023-02-23T04:14:18.690Z,97283.47
2023-02-23T04:16:46.995Z,97287.00
2023-02-23T04:19:16.665Z,97279.22
2023-02-23T04:21:44.788Z,97258.59
2023-02-23T04:24:12.900Z,97239.63
2023-02-23T04:26:40.938Z,97281.81
2023-02-23T04:29:09.137Z,97286.16
2023-02-23T04:31:37.398Z,97282.69
2023-02-23T04:34:06.217Z,97210.41
2023-02-23T04:36:36.415Z,97265.41
2023-02-23T04:39:05.001Z,97280.06
2023-02-23T04:41:33.138Z,96853.19
2023-02-23T04:44:01.389Z,97292.09
2023-02-23T04:46:29.528Z,97274.19
2023-02-23T04:48:57.688Z,97292.25
2023-02-23T04:51:30.286Z,97288.91
2023-02-23T04:53:59.842Z,97289.88
2023-02-23T04:56:28.144Z,97295.97
2023-02-23T04:58:56.431Z,97266.66
2023-02-23T05:01:24.775Z,97155.72
2023-02-23T05:03:53.000Z,97294.97
2023-02-23T05:06:21.217Z,97297.47
2023-02-23T05:08:49.632Z,97294.16
2023-02-23T05:11:19.505Z,97288.94
2023-02-23T05:13:47.781Z,97294.09
2023-02-23T05:16:15.956Z,97301.88
2023-02-23T05:18:44.293Z,97298.38
2023-02-23T05:21:12.672Z,97211.66
2023-02-23T05:23:40.915Z,97300.97
2023-02-23T05:26:10.877Z,97280.25
2023-02-23T05:28:42.350Z,97310.41
2023-02-23T05:31:10.694Z,97300.09
2023-02-23T05:33:42.672Z,97297.63
2023-02-23T05:36:12.137Z,97306.22
2023-02-23T05:38:40.798Z,97310.63
2023-02-23T05:41:09.421Z,97100.81
2023-02-23T05:43:37.853Z,97310.56
2023-02-23T05:46:09.449Z,97306.28
2023-02-23T05:48:37.872Z,97316.59
2023-02-23T05:51:07.730Z,97319.22
2023-02-23T05:53:35.875Z,97319.25
2023-02-23T05:56:05.349Z,97316.59
2023-02-23T05:58:33.824Z,97309.69
2023-02-23T06:01:02.122Z,97316.53
2023-02-23T06:03:32.091Z,97330.31
2023-02-23T06:06:00.594Z,97266.69
2023-02-23T06:08:28.819Z,97315.66
2023-02-23T06:10:57.027Z,97313.97
2023-02-23T06:13:25.098Z,97310.53
2023-02-23T06:15:53.333Z,97275.28
2023-02-23T06:18:22.310Z,97314.78
2023-02-23T06:20:51.885Z,97321.59
2023-02-23T06:23:20.287Z,97323.34
2023-02-23T06:25:54.524Z,97330.31
2023-02-23T06:28:22.695Z,97276.88
2023-02-23T06:30:53.580Z,97276.91
2023-02-23T06:33:22.556Z,97345.72
2023-02-23T06:35:52.693Z,97329.44
2023-02-23T06:38:22.205Z,97356.16
2023-02-23T06:40:50.294Z,97346.69
2023-02-23T06:43:18.400Z,97344.19
2023-02-23T06:45:48.060Z,97374.38
2023-02-23T06:48:16.184Z,97363.16
2023-02-23T06:50:44.884Z,97384.66
2023-02-23T06:53:14.468Z,97391.50
2023-02-23T06:55:42.690Z,97361.31
2023-02-23T06:58:10.903Z,97353.50
2023-02-23T07:00:43.031Z,97365.53
2023-02-23T07:03:11.988Z,97357.69
2023-02-23T07:05:41.094Z,97393.81
2023-02-23T07:08:09.298Z,97401.63
2023-02-23T07:10:38.886Z,97398.22
2023-02-23T07:13:07.011Z,97398.97
2023-02-23T07:15:36.848Z,97372.22
2023-02-23T07:18:05.094Z,97412.53
2023-02-23T07:20:33.476Z,97409.94
2023-02-23T07:23:02.103Z,97301.47
2023-02-23T07:25:30.507Z,97379.69
2023-02-23T07:28:00.233Z,97418.34
2023-02-23T07:30:28.429Z,97409.50
2023-02-23T07:32:56.589Z,97407.72
2023-02-23T07:35:24.726Z,97418.94
2023-02-23T07:37:53.951Z,97399.16
2023-02-23T07:40:22.200Z,97422.41
2023-02-23T07:42:50.401Z,97417.97
2023-02-23T07:45:19.942Z,97420.47
2023-02-23T07:47:48.166Z,97429.84
2023-02-23T07:50:16.260Z,97426.22
2023-02-23T07:52:45.986Z,97430.56
2023-02-23T07:55:14.236Z,97413.34
2023-02-23T07:57:42.371Z,97430.53
2023-02-23T08:00:12.493Z,97439.16
2023-02-23T08:02:42.304Z,97441.63
2023-02-23T08:05:10.811Z,97432.06
2023-02-23T08:07:39.074Z,97431.84
2023-02-23T08:10:08.192Z,97424.81
2023-02-23T08:12:37.025Z,97490.56
2023-02-23T08:15:08.481Z,97424.63
2023-02-23T08:17:36.681Z,97396.13
2023-02-23T08:20:07.596Z,97426.09
2023-02-23T08:22:48.497Z,97421.63
2023-02-23T08:25:18.052Z,97423.22
2023-02-23T08:27:46.362Z,97416.22
2023-02-23T08:30:16.120Z,97419.59
2023-02-23T08:32:44.286Z,97414.13
2023-02-23T08:35:14.236Z,97393.31
2023-02-23T08:37:43.114Z,97413.81
2023-02-23T08:40:15.720Z,97399.50
2023-02-23T08:42:44.016Z,97403.50
2023-02-23T08:45:13.395Z,97405.88
2023-02-23T08:47:41.792Z,97406.59
2023-02-23T08:50:11.436Z,97404.66
2023-02-23T08:52:41.531Z,97405.34
2023-02-23T08:55:11.841Z,97387.31
2023-02-23T08:57:39.993Z,97401.78
2023-02-23T09:00:14.286Z,97409.63
2023-02-23T09:02:42.873Z,97402.59
2023-02-23T09:05:12.151Z,97414.72
2023-02-23T09:07:45.283Z,97424.25
2023-02-23T09:10:15.639Z,97415.38
2023-02-23T09:12:43.835Z,97392.88
2023-02-23T09:15:12.970Z,97415.22
2023-02-23T09:17:42.982Z,97406.88
2023-02-23T09:20:13.799Z,97419.66
2023-02-23T09:22:45.587Z,97276.25
2023-02-23T09:25:14.644Z,97405.00
2023-02-23T09:27:42.716Z,97410.16
2023-02-23T09:30:12.728Z,97423.06
2023-02-23T09:32:40.901Z,97426.53
2023-02-23T09:35:09.863Z,97428.31
2023-02-23T09:37:37.985Z,97432.47
2023-02-23T09:40:09.870Z,97426.31
2023-02-23T09:42:45.638Z,97429.94
2023-02-23T09:45:27.470Z,97335.44
2023-02-23T09:48:16.833Z,97429.13
2023-02-23T09:50:49.181Z,97411.25
2023-02-23T09:53:33.866Z,97369.88
2023-02-23T09:56:11.854Z,97431.59
2023-02-23T09:58:40.183Z,97389.72
2023-02-23T10:01:46.419Z,97435.84
2023-02-23T10:04:21.880Z,97431.34
2023-02-23T10:06:57.642Z,97324.91
2023-02-23T10:09:37.578Z,97315.47
2023-02-23T10:12:11.197Z,97430.41
2023-02-23T10:15:06.603Z,97424.03
2023-02-23T10:17:42.167Z,97407.84
2023-02-23T10:20:23.334Z,97428.31
2023-02-23T10:22:52.693Z,97430.84
2023-02-23T10:25:26.655Z,97427.22
2023-02-23T10:27:57.614Z,97431.25
2023-02-23T10:30:27.263Z,97423.41
2023-02-23T10:33:02.658Z,97414.63
2023-02-23T10:35:32.226Z,97455.06
2023-02-23T10:38:03.286Z,97417.50
2023-02-23T10:40:35.748Z,97419.88
2023-02-23T10:43:05.381Z,97414.41
2023-02-23T10:45:40.603Z,97414.25
2023-02-23T10:48:14.581Z,97410.69
2023-02-23T10:50:43.996Z,97368.66
2023-02-23T10:53:17.290Z,97358.69
2023-02-23T10:55:46.810Z,97251.28
2023-02-23T10:58:18.994Z,97250.75
2023-02-23T11:00:58.117Z,97285.00
2023-02-23T11:03:33.411Z,97372.69
2023-02-23T11:06:02.508Z,97374.16
2023-02-23T11:08:33.485Z,97392.00
2023-02-23T11:11:19.427Z,97322.19
2023-02-23T11:13:51.197Z,97380.88
2023-02-23T11:16:22.226Z,97385.94
2023-02-23T11:18:55.453Z,97376.13
2023-02-23T11:21:29.536Z,97372.38
2023-02-23T11:23:59.710Z,97366.75
2023-02-23T11:26:37.711Z,97373.28
2023-02-23T11:29:18.831Z,97357.16
2023-02-23T11:31:53.291Z,97353.41
2023-02-23T11:34:29.055Z,97335.91
2023-02-23T11:37:03.213Z,97295.28
2023-02-23T11:39:31.337Z,97286.66
2023-02-23T11:42:15.237Z,97345.69
2023-02-23T11:44:45.255Z,97343.97
2023-02-23T11:47:19.066Z,97338.81
2023-02-23T11:49:49.435Z,97341.63
2023-02-23T11:52:21.209Z,97341.03
2023-02-23T11:54:54.145Z,97308.81
2023-02-23T11:57:24.376Z,97211.13
2023-02-23T11:59:54.544Z,97257.66
2023-02-23T12:02:25.990Z,97331.81
2023-02-23T12:05:03.656Z,97335.28
2023-02-23T12:07:41.858Z,97328.59
2023-02-23T12:10:23.144Z,97329.56
2023-02-23T12:12:58.486Z,97326.19
2023-02-23T12:15:36.632Z,97335.59
2023-02-23T12:18:13.331Z,97331.38
2023-02-23T12:20:44.794Z,97329.78
2023-02-23T12:23:16.997Z,97296.47
2023-02-23T12:25:49.012Z,97272.84
2023-02-23T12:28:26.180Z,97318.94
2023-02-23T12:31:01.368Z,97287.50
2023-02-23T12:33:34.626Z,97298.50
2023-02-23T12:36:13.053Z,97311.53
2023-02-23T12:38:51.291Z,97295.16
2023-02-23T12:41:26.587Z,97309.84
2023-02-23T12:44:00.971Z,97289.94
2023-02-23T12:46:35.581Z,97286.41
2023-02-23T12:49:14.002Z,97307.91
2023-02-23T12:51:48.415Z,97199.06
2023-02-23T12:54:18.651Z,97304.34
2023-02-23T12:56:56.034Z,97260.31
2023-02-23T12:59:51.582Z,97295.41
2023-02-23T13:02:30.878Z,97298.25
2023-02-23T13:05:24.703Z,97299.28
2023-02-23T13:08:12.698Z,97294.00
2023-02-23T13:10:52.454Z,97292.69
2023-02-23T13:13:34.538Z,97262.63
2023-02-23T13:16:13.037Z,97284.75
2023-02-23T13:18:48.681Z,97290.59
2023-02-23T13:21:21.940Z,97256.47
2023-02-23T13:23:59.885Z,97287.09
2023-02-23T13:26:37.144Z,97270.88
2023-02-23T13:29:12.183Z,97298.09
2023-02-23T13:31:42.981Z,97292.88
2023-02-23T13:34:18.368Z,97293.13
2023-02-23T13:36:47.177Z,97291.56
2023-02-23T13:39:39.407Z,97296.94
2023-02-23T13:42:21.586Z,97209.66
2023-02-23T13:44:56.716Z,97292.59
2023-02-23T13:47:38.284Z,97300.47
2023-02-23T13:50:22.626Z,97314.47
2023-02-23T13:52:54.249Z,97300.66
2023-02-23T13:55:49.823Z,97286.13
2023-02-23T13:58:28.884Z,97301.78
2023-02-23T14:01:07.160Z,97308.06
2023-02-23T14:03:42.399Z,97306.69
2023-02-23T14:06:15.310Z,97244.84
2023-02-23T14:08:45.745Z,97226.06
2023-02-23T14:11:38.688Z,97306.81
2023-02-23T14:14:07.217Z,97295.91
2023-02-23T14:16:37.239Z,97186.28
2023-02-23T14:19:32.195Z,97306.38
2023-02-23T14:22:06.780Z,97295.19
2023-02-23T14:24:35.088Z,97298.59
2023-02-23T14:27:41.857Z,97293.25
2023-02-23T14:30:44.774Z,97289.78
2023-02-23T14:33:50.721Z,97251.94
2023-02-23T14:36:43.254Z,97293.94
2023-02-23T14:39:19.245Z,97170.44
2023-02-23T14:41:51.863Z,97273.03
2023-02-23T14:44:29.995Z,97219.88
2023-02-23T14:47:03.703Z,97291.94
2023-02-23T14:49:37.007Z,97183.47
2023-02-23T14:52:10.106Z,97279.91
2023-02-23T14:54:41.415Z,97196.06
2023-02-23T14:57:19.115Z,97293.84
2023-02-23T14:59:54.287Z,97295.50
2023-02-23T15:02:25.356Z,97291.09
2023-02-23T15:04:53.542Z,97298.09
2023-02-23T15:07:32.216Z,97293.47
2023-02-23T15:10:05.381Z,97294.00
2023-02-23T15:12:38.031Z,97288.56
2023-02-23T15:15:17.104Z,97293.84
2023-02-23T15:17:48.149Z,97188.59
2023-02-23T15:20:19.094Z,97290.06
2023-02-23T15:22:49.783Z,97289.34
2023-02-23T15:25:21.576Z,97289.47
2023-02-23T15:27:52.009Z,97285.66
2023-02-23T15:30:23.276Z,97280.66
2023-02-23T15:33:01.108Z,97276.47
2023-02-23T15:35:30.571Z,97226.16
2023-02-23T15:38:14.226Z,97278.00
2023-02-23T15:40:55.747Z,97133.56
2023-02-23T15:43:24.683Z,97277.53
2023-02-23T15:45:56.008Z,97273.16
2023-02-23T15:48:26.369Z,97088.44
2023-02-23T15:50:57.710Z,97231.97
2023-02-23T15:53:30.429Z,97279.78
2023-02-23T15:56:05.155Z,97284.03
2023-02-23T15:58:44.453Z,97263.38
2023-02-23T16:01:24.950Z,97248.63
2023-02-23T16:04:01.886Z,97236.00
2023-02-23T16:06:34.737Z,97258.81
2023-02-23T16:09:20.024Z,97281.28
2023-02-23T16:11:53.074Z,97282.94
2023-02-23T16:14:22.811Z,97276.88
2023-02-23T16:17:08.494Z,97282.13
2023-02-23T16:19:41.308Z,97276.88
2023-02-23T16:22:20.004Z,97233.41
2023-02-23T16:24:56.637Z,97273.75
2023-02-23T16:27:29.007Z,97274.81
2023-02-23T16:30:01.327Z,97257.03
2023-02-23T16:32:38.194Z,97266.13
2023-02-23T16:35:16.902Z,97285.41
2023-02-23T16:38:00.367Z,97290.16
2023-02-23T16:40:29.015Z,97298.38
2023-02-23T16:42:59.703Z,97283.84
2023-02-23T16:45:29.776Z,97255.91
2023-02-23T16:48:02.515Z,97287.84
2023-02-23T16:50:32.719Z,97296.75
2023-02-23T16:53:02.217Z,97284.78
2023-02-23T16:55:31.225Z,97245.84
2023-02-23T16:58:04.049Z,97289.06
2023-02-23T17:00:33.933Z,97262.00
2023-02-23T17:03:02.272Z,97272.66
2023-02-23T17:05:30.994Z,97295.25
2023-02-23T17:07:59.380Z,97292.00
2023-02-23T17:10:31.278Z,97259.53
2023-02-23T17:13:04.511Z,97272.50
2023-02-23T17:15:35.522Z,97296.72
2023-02-23T17:18:04.053Z,97298.66
2023-02-23T17:20:32.846Z,97294.53
2023-02-23T17:23:02.718Z,97294.84
2023-02-23T17:25:31.307Z,97175.09
2023-02-23T17:28:02.353Z,97266.19
2023-02-23T17:30:31.128Z,97297.13
2023-02-23T17:33:00.969Z,97312.00
2023-02-23T17:35:32.717Z,97310.28
2023-02-23T17:38:00.970Z,97310.34
2023-02-23T17:40:29.689Z,97300.84
2023-02-23T17:43:01.356Z,97307.03
2023-02-23T17:45:30.424Z,97306.31
2023-02-23T17:47:59.568Z,97292.69
2023-02-23T17:50:28.371Z,97292.75
2023-02-23T17:52:57.462Z,97310.81
2023-02-23T17:55:26.845Z,97293.75
2023-02-23T17:57:55.137Z,97306.66
2023-02-23T18:00:25.394Z,97305.91
2023-02-23T18:02:53.797Z,97305.97
2023-02-23T18:05:22.533Z,97311.28
2023-02-23T18:07:50.739Z,97308.72
2023-02-23T18:10:19.450Z,97261.50
2023-02-23T18:12:47.636Z,97237.81
2023-02-23T18:15:17.516Z,97314.16
2023-02-23T18:17:47.419Z,97308.16
2023-02-23T18:20:17.138Z,97284.03
2023-02-23T18:22:45.756Z,97217.22
2023-02-23T18:25:22.049Z,97310.81
2023-02-23T18:27:54.120Z,97303.91
2023-02-23T18:30:23.553Z,97310.88
2023-02-23T18:32:56.556Z,97278.31
2023-02-23T18:35:25.171Z,97300.63
2023-02-23T18:37:53.379Z,97296.34
2023-02-23T18:40:25.941Z,97302.44
2023-02-23T18:42:54.075Z,97301.66
2023-02-23T18:45:22.303Z,97284.56
2023-02-23T18:47:51.592Z,97305.34
2023-02-23T18:50:21.804Z,97308.75
2023-02-23T18:52:51.502Z,97299.19
2023-02-23T18:55:22.360Z,97306.16
2023-02-23T18:57:51.085Z,97236.50
2023-02-23T19:00:20.498Z,97290.44
2023-02-23T19:02:49.283Z,97300.88
2023-02-23T19:05:20.874Z,97293.06
2023-02-23T19:07:51.408Z,97286.31
2023-02-23T19:10:20.245Z,97289.75
2023-02-23T19:12:48.463Z,97287.19
2023-02-23T19:15:17.634Z,97291.44
2023-02-23T19:17:47.543Z,97290.53
2023-02-23T19:20:16.298Z,97294.00
2023-02-23T19:22:45.903Z,97287.09
2023-02-23T19:25:17.007Z,97254.53
2023-02-23T19:27:45.248Z,97292.31
2023-02-23T19:30:15.052Z,97289.69
2023-02-23T19:32:44.566Z,97180.09
2023-02-23T19:35:19.463Z,97294.94
2023-02-23T19:37:49.407Z,97292.25
2023-02-23T19:40:22.914Z,97234.78
2023-02-23T19:42:53.399Z,97269.97
2023-02-23T19:45:22.537Z,97302.81
2023-02-23T19:47:54.274Z,97248.69
2023-02-23T19:50:23.621Z,97293.38
2023-02-23T19:52:53.019Z,97249.69
2023-02-23T19:55:22.895Z,97275.34
2023-02-23T19:57:52.761Z,97286.38
2023-02-23T20:00:22.456Z,97298.50
2023-02-23T20:02:55.718Z,97287.09
2023-02-23T20:05:26.226Z,97285.31
2023-02-23T20:07:55.720Z,97287.06
2023-02-23T20:10:29.224Z,97277.56
2023-02-23T20:12:58.448Z,97265.09
2023-02-23T20:15:26.877Z,97277.94
2023-02-23T20:17:55.627Z,97260.84
2023-02-23T20:20:25.953Z,97254.78
2023-02-23T20:22:55.547Z,97277.94
2023-02-23T20:25:27.310Z,97222.09
2023-02-23T20:27:56.073Z,97272.69
2023-02-23T20:30:24.601Z,97193.78
2023-02-23T20:32:52.858Z,97275.03
2023-02-23T20:35:21.483Z,97272.47
2023-02-23T20:37:49.754Z,97288.16
2023-02-23T20:40:18.849Z,97253.72
2023-02-23T20:42:50.156Z,97276.94
2023-02-23T20:45:20.923Z,97276.03
2023-02-23T20:47:53.151Z,97275.16
2023-02-23T20:50:22.925Z,97245.91
2023-02-23T20:52:51.769Z,97262.28
2023-02-23T20:55:20.885Z,97272.47
2023-02-23T20:57:53.445Z,97270.72
2023-02-23T21:00:24.402Z,97254.44
2023-02-23T21:02:56.378Z,97194.41
2023-02-23T21:05:27.702Z,97271.28
2023-02-23T21:08:00.138Z,97271.38
2023-02-23T21:10:32.038Z,97266.16
2023-02-23T21:13:06.054Z,97232.97
2023-02-23T21:15:35.292Z,97220.00
2023-02-23T21:18:03.534Z,97247.56
2023-02-23T21:20:31.895Z,97258.72
2023-02-23T21:23:00.645Z,97256.97
2023-02-23T21:25:29.804Z,97233.72
2023-02-23T21:28:02.016Z,97256.97
2023-02-23T21:30:32.044Z,97250.78
2023-02-23T21:33:01.353Z,97251.63
2023-02-23T21:35:29.920Z,97253.31
2023-02-23T21:37:59.509Z,97250.09
2023-02-23T21:40:28.034Z,97244.09
2023-02-23T21:42:57.292Z,97240.59
2023-02-23T21:45:25.581Z,97243.97
2023-02-23T21:47:56.066Z,97250.00
2023-02-23T21:50:24.360Z,97248.19
2023-02-23T21:52:54.188Z,97239.47
2023-02-23T21:55:23.601Z,97222.25
2023-02-23T21:57:52.781Z,97205.13
2023-02-23T22:00:23.028Z,97222.34
2023-02-23T22:02:51.833Z,97239.47
2023-02-23T22:05:21.691Z,97238.75
2023-02-23T22:07:51.225Z,97218.16
2023-02-23T22:10:21.488Z,97220.75
2023-02-23T22:12:56.053Z,97241.56
2023-02-23T22:15:28.507Z,97230.94
2023-02-23T22:17:57.167Z,97152.94
2023-02-23T22:20:27.006Z,97167.56
2023-02-23T22:22:55.199Z,97212.06
2023-02-23T22:25:23.416Z,97223.13
2023-02-23T22:27:51.551Z,97223.97
2023-02-23T22:30:23.029Z,97222.25
2023-02-23T22:32:51.698Z,97209.41
2023-02-23T22:35:20.104Z,97217.13
2023-02-23T22:37:49.858Z,97215.22
2023-02-23T22:40:18.586Z,97192.97
2023-02-23T22:42:49.362Z,97175.84
2023-02-23T22:45:18.262Z,97194.72
2023-02-23T22:47:46.548Z,97209.25
2023-02-23T22:50:18.143Z,97181.66
2023-02-23T22:52:47.595Z,97197.19
2023-02-23T22:55:19.390Z,97187.94
2023-02-23T22:57:47.784Z,97202.56
2023-02-23T23:00:19.833Z,97198.19
2023-02-23T23:02:48.444Z,97193.75
2023-02-23T23:05:17.628Z,97164.53
2023-02-23T23:07:47.754Z,97188.63
2023-02-23T23:10:17.847Z,97186.91
2023-02-23T23:12:46.812Z,97169.75
2023-02-23T23:15:19.063Z,97150.72
2023-02-23T23:17:49.349Z,97130.19
2023-02-23T23:20:23.071Z,97179.84
2023-02-23T23:22:51.274Z,97185.94
2023-02-23T23:25:23.209Z,97183.34
2023-02-23T23:27:54.010Z,97180.75
2023-02-23T23:30:26.149Z,97153.22
2023-02-23T23:32:54.559Z,97182.59
2023-02-23T23:35:23.152Z,97178.28
2023-02-23T23:37:52.157Z,97137.94
2023-02-23T23:40:24.603Z,97179.34
2023-02-23T23:42:55.934Z,97173.97
2023-02-23T23:45:25.354Z,97099.19
2023-02-23T23:47:53.505Z,97136.84
2023-02-23T23:50:26.917Z,97162.41
2023-02-23T23:52:56.825Z,97157.16
2023-02-23T23:55:31.086Z,97150.34
2023-02-23T23:58:00.429Z,97011.66
